Airfield :
LOGIN :

Register | Disclaimer

   EN    FR    IT 

 










Legend :    VFR   Marginal VFR   IFR   Intensive IFR   Very Intensive IFR
Visi :
Ceiling :
>= 8 km
>= 3000ft
5 to 8 km
1000 to 3000 ft
1500m to 5 km
500 to 1000 ft
800 to 1500m
200 to 500 ft
< 800m
< 200 ft
Symbols :   Thunderstorms  Fog  Heavy snow  Heavy precipitations  Wind > 20 kt
SIGMETs :     Misc.  Thunderstorms  Icing  Turbulence  Mountain Waves  Volcanic Ashes







- Airport Elevation : 22 ft
- IATA code : LDY
- Download approach charts


EGAE - Londonderry Eglington

CURRENT METAR :
  • 191320Z 19006KT 150V220 9999 FEW046 08/03 Q1020

EXPIRED METARs :
  • 191250Z 19005KT 150V230 9999 FEW039 08/03 Q1021
  • 191220Z VRB02KT 9999 FEW047 07/06 Q1021
  • 191150Z VRB02KT 9999 FEW047 06/05 Q1022
  • 191120Z 06003KT 9999 SCT040 06/05 Q1022

TAF TAF EGAE
Valid from the 19 at 12:00 until the 19 at 21:00 UTC


191203Z 1912/1921 17008KT 9999 FEW020 BKN040
PROB40
TEMPO 1916/1921 7000 -RA BKN014
No reported NOTAMs for that airfield.



MET'MAP, your aeronautical weather chart ! - Copyright ORBIFLY December 2007 - Disclaimer

ORBIFLY MET'MAP TEAM :

Programming & Development : Alexandra Zaïnal
Concept & Development : Baudouin d'Aumeries
Co-Development & Prog : Marc-Olivier Méhu
Technical & hardware support : Manuel Goepfert

Contact : metmap@orbifly.com




SOURCES & CREDITS :

   NOAA